Time;durP1;ratioP1;P1;durP2;ratioP2;P2;SDS_P1;SDS_P2;PMS_P1;PMS_P2;Temp;Humidity;BMP_temperature;BMP_pressure;BME280_temperature;BME280_humidity;BME280_pressure;Samples;Min_cycle;Max_cycle;Signal;HPM_P1;HPM_P2
2022/08/05 00:01:52;;;;;;;19.73;17.63;;;;;;;;;;4841340;29;20053;-79
2022/08/05 00:04:18;;;;;;;20.30;18.20;;;;;;;;;;4841361;29;20052;-80
2022/08/05 00:06:43;;;;;;;22.33;17.02;;;;;;;;;;4857972;29;20045;-80
2022/08/05 00:09:09;;;;;;;25.42;17.98;;;;;;;;;;4858486;29;20061;-79
2022/08/05 00:11:35;;;;;;;20.30;17.15;;;;;;;;;;4858296;29;20057;-80
2022/08/05 00:14:02;;;;;;;21.42;16.73;;;;;;;;;;4858524;29;20136;-80
2022/08/05 00:16:28;;;;;;;23.50;17.90;;;;;;;;;;4841096;29;20077;-78
2022/08/05 00:18:54;;;;;;;25.58;17.95;;;;;;;;;;4857833;29;20057;-79
2022/08/05 00:21:20;;;;;;;28.75;17.38;;;;;;;;;;4857543;29;20116;-80
2022/08/05 00:54:59;;;;;;;18.05;16.20;;;;;;;;;;4836969;29;20626;-80
2022/08/05 00:57:25;;;;;;;17.27;15.65;;;;;;;;;;4839144;29;20106;-80
2022/08/05 00:59:51;;;;;;;18.10;16.23;;;;;;;;;;4838695;29;20529;-80
2022/08/05 01:02:17;;;;;;;22.27;16.63;;;;;;;;;;4838882;29;20258;-79
2022/08/05 01:04:43;;;;;;;20.38;15.80;;;;;;;;;;4838746;29;20081;-80
2022/08/05 01:07:09;;;;;;;17.98;16.08;;;;;;;;;;4838665;29;20138;-80
2022/08/05 01:09:35;;;;;;;19.88;17.42;;;;;;;;;;4838652;29;20050;-78
2022/08/05 01:12:11;;;;;;;18.25;16.45;;;;;;;;;;4838746;29;20065;-80
2022/08/05 01:14:51;;;;;;;20.17;16.40;;;;;;;;;;4822147;29;20050;-79
2022/08/05 01:17:20;;;;;;;19.70;17.67;;;;;;;;;;4839796;29;20049;-80
2022/08/05 01:19:49;;;;;;;21.10;18.65;;;;;;;;;;4841052;29;20068;-79
2022/08/05 01:22:33;;;;;;;23.63;17.35;;;;;;;;;;4826217;29;20042;-79
2022/08/05 01:25:12;;;;;;;20.52;18.45;;;;;;;;;;4843865;29;20049;-79
2022/08/05 01:27:56;;;;;;;19.48;17.38;;;;;;;;;;4845241;29;20530;-78
2022/08/05 01:30:22;;;;;;;21.83;17.58;;;;;;;;;;4848417;29;20046;-78
2022/08/05 01:32:48;;;;;;;23.70;18.20;;;;;;;;;;4854800;29;20566;-79
2022/08/05 01:35:15;;;;;;;25.33;17.83;;;;;;;;;;4849708;29;20042;-78
2022/08/05 01:37:45;;;;;;;20.85;17.67;;;;;;;;;;4840888;29;20582;-79
2022/08/05 01:40:11;;;;;;;27.55;19.15;;;;;;;;;;4840684;29;20061;-80
2022/08/05 01:42:38;;;;;;;28.67;18.83;;;;;;;;;;4841695;29;20076;-79
2022/08/05 01:45:04;;;;;;;19.65;17.55;;;;;;;;;;4840362;29;20045;-79
2022/08/05 01:47:30;;;;;;;24.80;18.38;;;;;;;;;;4840459;29;20128;-81
2022/08/05 01:49:56;;;;;;;24.00;18.40;;;;;;;;;;4824687;29;20056;-79
2022/08/05 01:52:22;;;;;;;20.15;17.92;;;;;;;;;;4824833;29;20429;-79
2022/08/05 01:54:58;;;;;;;21.70;18.77;;;;;;;;;;4824512;29;20053;-80
2022/08/05 01:57:28;;;;;;;24.35;18.92;;;;;;;;;;4841209;29;20054;-77
2022/08/05 01:59:56;;;;;;;23.90;18.85;;;;;;;;;;4841218;29;20046;-79
2022/08/05 02:02:22;;;;;;;27.67;18.92;;;;;;;;;;4841378;29;20050;-79
2022/08/05 02:04:48;;;;;;;21.50;19.23;;;;;;;;;;4840990;29;20098;-78
2022/08/05 02:07:14;;;;;;;22.85;18.60;;;;;;;;;;4841097;29;20052;-78
2022/08/05 02:09:40;;;;;;;20.02;18.02;;;;;;;;;;4824321;29;20077;-77
2022/08/05 02:12:11;;;;;;;23.05;18.23;;;;;;;;;;4840938;29;20053;-79
2022/08/05 02:14:47;;;;;;;19.33;17.30;;;;;;;;;;4839614;29;20034;-79
2022/08/05 02:17:18;;;;;;;21.98;17.67;;;;;;;;;;4855086;29;20084;-79
2022/08/05 02:19:47;;;;;;;19.42;16.98;;;;;;;;;;4839535;29;20519;-78
2022/08/05 02:22:31;;;;;;;21.00;18.08;;;;;;;;;;4839695;29;20106;-79
2022/08/05 02:25:04;;;;;;;20.50;17.00;;;;;;;;;;4840590;29;20046;-79
2022/08/05 02:27:32;;;;;;;20.20;17.58;;;;;;;;;;4845062;29;20061;-80
2022/08/05 02:29:58;;;;;;;19.15;17.23;;;;;;;;;;4849690;29;20048;-79
2022/08/05 02:32:24;;;;;;;22.27;17.83;;;;;;;;;;4840382;29;20070;-79
2022/08/05 02:34:50;;;;;;;18.65;16.70;;;;;;;;;;4840759;29;20034;-80
2022/08/05 02:37:15;;;;;;;18.70;16.75;;;;;;;;;;4824417;29;20057;-80
2022/08/05 02:39:41;;;;;;;18.95;16.60;;;;;;;;;;4840658;29;20120;-79
2022/08/05 02:42:08;;;;;;;21.65;17.70;;;;;;;;;;4841039;29;20060;-79
2022/08/05 02:44:35;;;;;;;22.75;18.35;;;;;;;;;;4824358;29;20054;-79
2022/08/05 02:47:01;;;;;;;26.20;19.20;;;;;;;;;;4840373;29;20050;-78
2022/08/05 02:49:32;;;;;;;20.67;18.58;;;;;;;;;;4839134;29;20103;-79
2022/08/05 02:51:58;;;;;;;25.50;18.23;;;;;;;;;;4840496;29;20056;-78
2022/08/05 02:54:23;;;;;;;20.42;18.20;;;;;;;;;;4838558;29;20136;-80
2022/08/05 02:56:49;;;;;;;23.52;19.50;;;;;;;;;;4824221;29;20080;-79
2022/08/05 02:59:15;;;;;;;22.25;18.35;;;;;;;;;;4840258;29;20160;-78
2022/08/05 03:01:41;;;;;;;25.10;18.98;;;;;;;;;;4839915;29;20056;-78
2022/08/05 03:04:08;;;;;;;23.75;18.23;;;;;;;;;;4840127;29;20550;-80
2022/08/05 03:06:34;;;;;;;22.63;18.42;;;;;;;;;;4838775;29;20116;-78
2022/08/05 03:09:00;;;;;;;23.38;17.80;;;;;;;;;;4839843;29;20558;-77
2022/08/05 03:11:27;;;;;;;20.85;18.30;;;;;;;;;;4838515;29;20054;-79
2022/08/05 03:13:53;;;;;;;23.10;19.10;;;;;;;;;;4839838;29;20057;-80
2022/08/05 03:16:20;;;;;;;27.35;18.25;;;;;;;;;;4823558;29;20431;-78
2022/08/05 03:18:46;;;;;;;20.70;18.25;;;;;;;;;;4839866;29;20448;-79
2022/08/05 03:21:12;;;;;;;21.88;18.33;;;;;;;;;;4840271;29;20050;-79
2022/08/05 03:23:38;;;;;;;22.58;19.08;;;;;;;;;;4839888;29;20418;-80
2022/08/05 03:26:04;;;;;;;20.40;18.25;;;;;;;;;;4840223;29;20045;-77
2022/08/05 03:28:30;;;;;;;22.75;18.67;;;;;;;;;;4838998;29;20083;-77
2022/08/05 03:30:56;;;;;;;21.98;19.33;;;;;;;;;;4839764;29;20045;-81
2022/08/05 03:33:23;;;;;;;24.17;18.92;;;;;;;;;;4839832;29;20146;-81
2022/08/05 03:35:49;;;;;;;30.90;19.13;;;;;;;;;;4839237;29;20081;-80
2022/08/05 03:38:15;;;;;;;21.85;17.92;;;;;;;;;;4839786;29;20041;-79
2022/08/05 03:40:41;;;;;;;24.00;18.80;;;;;;;;;;4822500;29;20265;-77
2022/08/05 03:43:07;;;;;;;24.25;19.15;;;;;;;;;;4839455;29;20046;-77
2022/08/05 03:45:32;;;;;;;22.80;18.05;;;;;;;;;;4839359;29;20474;-79
2022/08/05 03:47:58;;;;;;;22.25;17.88;;;;;;;;;;4839384;29;20519;-78
2022/08/05 03:50:25;;;;;;;18.48;16.77;;;;;;;;;;4822686;29;20069;-79
2022/08/05 03:52:53;;;;;;;24.38;17.35;;;;;;;;;;4822502;29;20058;-79
2022/08/05 03:55:21;;;;;;;26.13;17.92;;;;;;;;;;4839090;29;20058;-78
2022/08/05 03:57:47;;;;;;;19.75;16.92;;;;;;;;;;4837775;29;20602;-78
2022/08/05 04:00:14;;;;;;;19.65;17.42;;;;;;;;;;4838945;29;20508;-77
2022/08/05 04:02:41;;;;;;;21.25;17.17;;;;;;;;;;4839010;29;20302;-78
2022/08/05 04:05:08;;;;;;;19.65;16.23;;;;;;;;;;4839344;29;20419;-78
2022/08/05 04:07:34;;;;;;;19.15;16.15;;;;;;;;;;4839289;29;20050;-79
2022/08/05 04:10:00;;;;;;;21.05;16.15;;;;;;;;;;4838945;29;20527;-80
2022/08/05 04:12:26;;;;;;;20.48;15.30;;;;;;;;;;4837869;29;20054;-78
2022/08/05 04:14:52;;;;;;;19.30;14.40;;;;;;;;;;4807333;29;20558;-79
2022/08/05 04:17:18;;;;;;;17.38;14.80;;;;;;;;;;4822883;29;20061;-79
2022/08/05 04:19:45;;;;;;;20.33;15.55;;;;;;;;;;4840420;29;20074;-79
2022/08/05 04:22:11;;;;;;;19.83;14.80;;;;;;;;;;4843694;29;20073;-79
2022/08/05 04:24:37;;;;;;;30.40;15.90;;;;;;;;;;4841652;29;20057;-79
2022/08/05 04:27:03;;;;;;;20.23;13.82;;;;;;;;;;4824496;29;20082;-79
2022/08/05 04:29:29;;;;;;;15.35;13.82;;;;;;;;;;4841537;29;20136;-80
2022/08/05 04:31:55;;;;;;;18.13;12.90;;;;;;;;;;4839153;29;20061;-79
2022/08/05 04:34:21;;;;;;;16.67;13.07;;;;;;;;;;4843538;29;20097;-77
2022/08/05 04:36:47;;;;;;;19.00;13.85;;;;;;;;;;4852360;29;20049;-79
2022/08/05 04:39:12;;;;;;;16.52;13.23;;;;;;;;;;4835147;29;20511;-77
2022/08/05 04:41:38;;;;;;;20.90;13.05;;;;;;;;;;4839640;29;20101;-79
2022/08/05 04:44:04;;;;;;;15.00;12.73;;;;;;;;;;4838973;29;20046;-78
2022/08/05 04:46:30;;;;;;;19.60;12.48;;;;;;;;;;4839076;29;20073;-79
2022/08/05 04:48:56;;;;;;;19.42;12.05;;;;;;;;;;4839696;29;20191;-79
2022/08/05 04:51:22;;;;;;;16.00;13.20;;;;;;;;;;4838987;29;20085;-78
2022/08/05 04:53:48;;;;;;;17.15;13.02;;;;;;;;;;4842135;29;20056;-78
2022/08/05 04:56:15;;;;;;;14.95;11.93;;;;;;;;;;4842382;29;20458;-79
2022/08/05 04:58:41;;;;;;;18.65;11.95;;;;;;;;;;4842225;29;20054;-78
2022/08/05 05:01:06;;;;;;;20.13;11.63;;;;;;;;;;4842265;29;20049;-79
2022/08/05 05:03:33;;;;;;;20.42;12.63;;;;;;;;;;4842270;29;20058;-78
2022/08/05 05:05:59;;;;;;;14.43;11.25;;;;;;;;;;4841942;29;20069;-79
2022/08/05 05:08:25;;;;;;;23.73;12.25;;;;;;;;;;4842087;29;20199;-79
2022/08/05 05:10:51;;;;;;;12.57;11.20;;;;;;;;;;4841590;29;20532;-77
2022/08/05 05:13:17;;;;;;;17.77;12.15;;;;;;;;;;4841667;29;20118;-78
2022/08/05 05:15:43;;;;;;;17.67;12.05;;;;;;;;;;4840538;29;20082;-77
2022/08/05 05:18:09;;;;;;;16.50;11.57;;;;;;;;;;4825165;29;20054;-79
2022/08/05 05:20:35;;;;;;;14.23;11.30;;;;;;;;;;4840618;29;20038;-78
2022/08/05 05:23:03;;;;;;;26.08;10.82;;;;;;;;;;4824943;29;20049;-77
2022/08/05 05:25:29;;;;;;;17.45;10.75;;;;;;;;;;4841738;29;20436;-78
2022/08/05 05:27:55;;;;;;;11.93;10.73;;;;;;;;;;4825053;29;20342;-79
2022/08/05 05:30:21;;;;;;;13.07;9.77;;;;;;;;;;4840381;29;20683;-76
2022/08/05 05:32:47;;;;;;;23.35;10.60;;;;;;;;;;4809800;29;20158;-79
2022/08/05 05:35:13;;;;;;;17.13;9.80;;;;;;;;;;4824905;29;20081;-78
2022/08/05 05:37:52;;;;;;;14.60;10.07;;;;;;;;;;4841568;29;20136;-79
2022/08/05 05:40:19;;;;;;;11.10;9.90;;;;;;;;;;4825035;29;20456;-77
2022/08/05 05:42:45;;;;;;;10.95;9.52;;;;;;;;;;4841777;29;20045;-77
2022/08/05 05:45:11;;;;;;;17.58;9.70;;;;;;;;;;4841308;29;20107;-79
2022/08/05 05:47:37;;;;;;;14.82;9.18;;;;;;;;;;4840064;29;20639;-80
2022/08/05 05:50:03;;;;;;;10.05;8.57;;;;;;;;;;4841055;29;20098;-78
2022/08/05 05:52:30;;;;;;;12.82;8.60;;;;;;;;;;4841277;29;20434;-77
2022/08/05 05:54:58;;;;;;;9.85;8.70;;;;;;;;;;4840522;29;20049;-79
2022/08/05 05:57:24;;;;;;;12.15;8.05;;;;;;;;;;4841057;29;20049;-78
2022/08/05 05:59:50;;;;;;;9.15;6.63;;;;;;;;;;4824548;29;20045;-78
2022/08/05 06:02:16;;;;;;;14.75;8.57;;;;;;;;;;4839948;29;20054;-78
2022/08/05 06:04:42;;;;;;;17.10;9.35;;;;;;;;;;4840809;29;20030;-77
2022/08/05 06:07:08;;;;;;;16.10;9.13;;;;;;;;;;4840857;29;20058;-79
2022/08/05 06:09:34;;;;;;;11.25;8.82;;;;;;;;;;4841164;29;20527;-81
2022/08/05 06:12:00;;;;;;;12.23;7.90;;;;;;;;;;4846198;29;20118;-80
2022/08/05 06:14:26;;;;;;;18.63;8.43;;;;;;;;;;4844042;29;20560;-79
2022/08/05 06:16:53;;;;;;;14.98;7.63;;;;;;;;;;4840800;29;20057;-80
2022/08/05 06:19:19;;;;;;;11.25;8.13;;;;;;;;;;4840984;29;20034;-79
2022/08/05 06:21:45;;;;;;;10.98;7.97;;;;;;;;;;4840785;29;20148;-79
2022/08/05 06:24:11;;;;;;;9.98;7.35;;;;;;;;;;4840488;29;20042;-79
2022/08/05 06:26:37;;;;;;;7.60;6.90;;;;;;;;;;4839377;29;20054;-80
2022/08/05 06:29:03;;;;;;;8.43;7.70;;;;;;;;;;4840546;29;20044;-79
2022/08/05 06:31:29;;;;;;;12.77;7.45;;;;;;;;;;4840304;29;20062;-79
2022/08/05 06:33:55;;;;;;;7.32;6.63;;;;;;;;;;4840405;29;20081;-79
2022/08/05 06:36:22;;;;;;;8.75;6.38;;;;;;;;;;4840508;29;20050;-77
2022/08/05 06:38:52;;;;;;;5.78;4.85;;;;;;;;;;4840753;29;20480;-78
2022/08/05 06:41:18;;;;;;;6.22;5.45;;;;;;;;;;4840543;29;20042;-78
2022/08/05 06:43:44;;;;;;;6.93;5.88;;;;;;;;;;4840543;29;20716;-78
2022/08/05 06:46:10;;;;;;;9.25;6.00;;;;;;;;;;4839898;29;20584;-78
2022/08/05 06:48:36;;;;;;;7.20;5.65;;;;;;;;;;4840202;29;20128;-80
2022/08/05 06:51:02;;;;;;;5.60;4.40;;;;;;;;;;4839909;29;20050;-76
2022/08/05 06:53:28;;;;;;;8.23;5.50;;;;;;;;;;4839973;29;20052;-79
2022/08/05 06:55:54;;;;;;;6.25;4.90;;;;;;;;;;4840008;29;20050;-78
2022/08/05 06:58:20;;;;;;;5.57;5.07;;;;;;;;;;4840075;29;20542;-78
2022/08/05 07:00:45;;;;;;;12.63;4.80;;;;;;;;;;4839839;29;20042;-78
2022/08/05 07:03:11;;;;;;;6.82;5.40;;;;;;;;;;4839908;29;20041;-79
2022/08/05 07:05:38;;;;;;;8.40;5.57;;;;;;;;;;4839714;29;20422;-79
2022/08/05 07:08:04;;;;;;;6.55;4.85;;;;;;;;;;4839696;29;20423;-78
2022/08/05 07:10:30;;;;;;;6.63;5.07;;;;;;;;;;4823310;29;20055;-77
2022/08/05 07:18:25;;;;;;;5.63;4.50;;;;;;;;;;4845024;29;20098;-79
2022/08/05 07:20:51;;;;;;;6.32;4.95;;;;;;;;;;4831156;29;20050;-81
2022/08/05 07:23:17;;;;;;;5.60;4.85;;;;;;;;;;4839830;29;20080;-80
2022/08/05 07:25:43;;;;;;;9.18;5.57;;;;;;;;;;4840214;29;20053;-82
2022/08/05 07:28:09;;;;;;;5.90;5.00;;;;;;;;;;4839680;29;20551;-80
2022/08/05 07:30:35;;;;;;;4.95;4.55;;;;;;;;;;4839569;29;20058;-81
2022/08/05 07:33:01;;;;;;;6.75;4.80;;;;;;;;;;4823361;29;20054;-79
2022/08/05 07:35:27;;;;;;;5.82;5.32;;;;;;;;;;4840413;29;20046;-79
2022/08/05 07:37:53;;;;;;;7.15;5.20;;;;;;;;;;4825900;29;20052;-78
2022/08/05 07:40:20;;;;;;;5.70;5.22;;;;;;;;;;4851938;29;20042;-80
2022/08/05 07:42:46;;;;;;;5.13;4.65;;;;;;;;;;4835486;29;20082;-79
2022/08/05 07:45:13;;;;;;;11.52;5.75;;;;;;;;;;4841736;29;20141;-79
2022/08/05 07:47:38;;;;;;;9.23;5.10;;;;;;;;;;4839664;29;20083;-79
2022/08/05 07:50:05;;;;;;;9.68;5.00;;;;;;;;;;4839177;29;20069;-79
2022/08/05 07:52:31;;;;;;;8.02;5.05;;;;;;;;;;4838974;29;20092;-79
2022/08/05 07:54:57;;;;;;;5.75;5.20;;;;;;;;;;4839034;29;20098;-78
2022/08/05 07:57:23;;;;;;;5.45;4.18;;;;;;;;;;4839339;29;20317;-78
2022/08/05 07:59:49;;;;;;;8.77;5.18;;;;;;;;;;4839524;29;20076;-79
2022/08/05 08:02:15;;;;;;;5.72;5.22;;;;;;;;;;4839808;29;20115;-79
2022/08/05 08:04:41;;;;;;;7.97;5.65;;;;;;;;;;4831472;29;20053;-79
2022/08/05 08:07:07;;;;;;;7.57;6.07;;;;;;;;;;4839070;29;20050;-78
2022/08/05 08:09:33;;;;;;;5.20;4.90;;;;;;;;;;4839025;29;20052;-78
2022/08/05 08:11:59;;;;;;;7.85;5.65;;;;;;;;;;4838596;29;20273;-78
2022/08/05 08:14:25;;;;;;;10.40;5.57;;;;;;;;;;4839014;29;20054;-78
2022/08/05 08:16:51;;;;;;;9.23;5.35;;;;;;;;;;4838710;29;20061;-79
2022/08/05 08:19:17;;;;;;;8.38;5.95;;;;;;;;;;4838758;29;20038;-79
2022/08/05 08:21:43;;;;;;;9.95;5.80;;;;;;;;;;4837453;29;20435;-79
2022/08/05 08:24:09;;;;;;;8.82;6.32;;;;;;;;;;4838540;29;20049;-78
2022/08/05 08:26:35;;;;;;;7.80;5.43;;;;;;;;;;4822601;29;20137;-79
2022/08/05 08:29:01;;;;;;;6.28;5.78;;;;;;;;;;4842731;29;20044;-79
2022/08/05 08:31:27;;;;;;;6.25;5.60;;;;;;;;;;4842468;29;20057;-76
2022/08/05 08:33:52;;;;;;;7.63;6.15;;;;;;;;;;4842821;29;20537;-78
2022/08/05 08:36:19;;;;;;;7.28;6.10;;;;;;;;;;4825965;29;20199;-81
2022/08/05 08:38:45;;;;;;;6.78;6.15;;;;;;;;;;4826316;29;20415;-78
2022/08/05 08:41:11;;;;;;;7.63;6.32;;;;;;;;;;4842464;29;20469;-79
2022/08/05 08:43:38;;;;;;;10.55;6.57;;;;;;;;;;4842442;29;20049;-78
2022/08/05 08:46:04;;;;;;;6.95;6.07;;;;;;;;;;4825522;29;20053;-80
2022/08/05 08:48:30;;;;;;;11.63;6.35;;;;;;;;;;4842302;29;20600;-79
2022/08/05 08:50:56;;;;;;;5.80;5.30;;;;;;;;;;4825762;29;20041;-80
2022/08/05 08:53:23;;;;;;;7.43;5.70;;;;;;;;;;4841980;29;20144;-79
2022/08/05 08:55:48;;;;;;;6.25;5.85;;;;;;;;;;4810631;29;20050;-82
2022/08/05 08:58:14;;;;;;;7.97;6.22;;;;;;;;;;4825643;29;20057;-77
2022/08/05 09:00:43;;;;;;;6.05;5.45;;;;;;;;;;4841992;29;20127;-78
2022/08/05 09:03:10;;;;;;;6.32;5.82;;;;;;;;;;4841990;29;20050;-78
2022/08/05 09:05:36;;;;;;;6.22;5.80;;;;;;;;;;4825225;29;20042;-79
2022/08/05 09:08:02;;;;;;;8.77;6.70;;;;;;;;;;4841865;29;20423;-78
2022/08/05 09:10:28;;;;;;;6.78;6.18;;;;;;;;;;4825286;29;20060;-79
2022/08/05 09:12:54;;;;;;;8.40;6.40;;;;;;;;;;4842019;29;20060;-80
2022/08/05 09:15:20;;;;;;;7.20;6.53;;;;;;;;;;4825223;29;20129;-79
2022/08/05 09:17:46;;;;;;;8.65;6.65;;;;;;;;;;4825344;29;20092;-78
2022/08/05 09:20:12;;;;;;;7.70;6.70;;;;;;;;;;4841474;29;20515;-78
2022/08/05 09:22:56;;;;;;;7.95;6.88;;;;;;;;;;4841405;29;20481;-79
2022/08/05 09:25:22;;;;;;;7.10;6.35;;;;;;;;;;4841524;29;20049;-79
2022/08/05 09:27:48;;;;;;;6.47;5.97;;;;;;;;;;4841844;29;20050;-78
2022/08/05 09:30:15;;;;;;;9.05;6.68;;;;;;;;;;4841344;29;20056;-78
2022/08/05 09:32:41;;;;;;;9.93;6.78;;;;;;;;;;4841453;29;20575;-79
2022/08/05 09:35:13;;;;;;;12.02;6.60;;;;;;;;;;4841503;29;20076;-78
2022/08/05 09:37:52;;;;;;;7.78;5.97;;;;;;;;;;4840978;29;20046;-80
2022/08/05 09:40:32;;;;;;;8.32;6.40;;;;;;;;;;4841297;29;20049;-81
2022/08/05 09:42:58;;;;;;;6.90;6.28;;;;;;;;;;4841641;29;20053;-79
2022/08/05 09:45:35;;;;;;;6.72;5.78;;;;;;;;;;4841200;29;20054;-79
2022/08/05 09:48:17;;;;;;;7.00;6.47;;;;;;;;;;4841581;29;20057;-79
2022/08/05 09:50:47;;;;;;;7.22;6.50;;;;;;;;;;4841480;29;20042;-79
2022/08/05 09:53:12;;;;;;;7.05;6.40;;;;;;;;;;4825037;29;20061;-81
2022/08/05 09:55:38;;;;;;;6.50;6.00;;;;;;;;;;4847718;29;20046;-81
2022/08/05 09:58:14;;;;;;;6.57;5.47;;;;;;;;;;4842096;29;20050;-80
2022/08/05 10:01:00;;;;;;;7.10;5.88;;;;;;;;;;4841234;29;20550;-79
2022/08/05 10:03:26;;;;;;;8.27;5.72;;;;;;;;;;4824515;29;20451;-81
2022/08/05 10:06:02;;;;;;;7.05;6.03;;;;;;;;;;4840884;29;20531;-80
2022/08/05 10:08:27;;;;;;;6.45;5.80;;;;;;;;;;4841320;29;20441;-80
2022/08/05 10:10:53;;;;;;;6.38;5.82;;;;;;;;;;4841266;29;20054;-80
2022/08/05 10:13:34;;;;;;;6.45;5.72;;;;;;;;;;4840891;29;20134;-80
2022/08/05 10:16:01;;;;;;;5.70;5.30;;;;;;;;;;4824512;29;20056;-79
2022/08/05 10:18:27;;;;;;;10.05;5.75;;;;;;;;;;4840618;29;20041;-81
2022/08/05 10:20:57;;;;;;;6.45;5.55;;;;;;;;;;4841555;29;20117;-78
2022/08/05 10:23:32;;;;;;;6.90;6.20;;;;;;;;;;4824071;29;20073;-78
2022/08/05 10:25:59;;;;;;;10.75;5.95;;;;;;;;;;4842387;29;20523;-79
2022/08/05 10:28:25;;;;;;;6.65;5.70;;;;;;;;;;4824694;29;20060;-78
2022/08/05 10:30:52;;;;;;;6.95;5.80;;;;;;;;;;4840623;29;20046;-80
2022/08/05 10:33:18;;;;;;;8.55;5.32;;;;;;;;;;4840401;29;20065;-78
2022/08/05 10:35:44;;;;;;;5.72;5.22;;;;;;;;;;4840798;29;20045;-80
2022/08/05 10:38:11;;;;;;;6.32;5.10;;;;;;;;;;4840572;29;20427;-80
2022/08/05 10:40:37;;;;;;;5.78;5.38;;;;;;;;;;4824431;29;20046;-78
2022/08/05 10:43:06;;;;;;;6.70;6.00;;;;;;;;;;4840748;29;20050;-79
2022/08/05 10:45:32;;;;;;;6.43;5.93;;;;;;;;;;4840409;29;20141;-79
2022/08/05 10:47:59;;;;;;;7.03;5.60;;;;;;;;;;4843388;29;20128;-80
2022/08/05 10:50:25;;;;;;;5.97;5.53;;;;;;;;;;4858055;29;20308;-79
2022/08/05 10:52:55;;;;;;;6.57;5.95;;;;;;;;;;4860256;29;20053;-79
2022/08/05 10:55:21;;;;;;;6.50;5.70;;;;;;;;;;4859095;29;20049;-81
2022/08/05 10:57:47;;;;;;;6.88;5.47;;;;;;;;;;4857383;29;20414;-79
2022/08/05 11:00:15;;;;;;;6.00;5.40;;;;;;;;;;4858297;29;20503;-80
2022/08/05 11:03:00;;;;;;;12.20;5.55;;;;;;;;;;4858450;29;20403;-79
2022/08/05 11:05:28;;;;;;;5.85;5.22;;;;;;;;;;4857774;29;20077;-80
2022/08/05 11:07:57;;;;;;;5.93;5.53;;;;;;;;;;4858093;29;20478;-80
2022/08/05 11:10:24;;;;;;;7.47;5.28;;;;;;;;;;4858237;29;20045;-79
2022/08/05 11:12:50;;;;;;;5.88;5.43;;;;;;;;;;4857919;29;20068;-79
2022/08/05 11:15:19;;;;;;;6.28;5.35;;;;;;;;;;4857892;29;20035;-78
2022/08/05 11:17:46;;;;;;;6.40;5.90;;;;;;;;;;4857893;29;20060;-80
2022/08/05 11:20:31;;;;;;;7.80;5.80;;;;;;;;;;4857988;29;20518;-81
2022/08/05 11:22:57;;;;;;;6.45;5.60;;;;;;;;;;4858026;29;20052;-80
2022/08/05 11:25:26;;;;;;;7.38;5.43;;;;;;;;;;4857829;29;20041;-79
2022/08/05 11:27:52;;;;;;;6.25;5.65;;;;;;;;;;4858023;29;20057;-79
2022/08/05 11:30:17;;;;;;;5.60;5.20;;;;;;;;;;4857807;29;20041;-79
2022/08/05 11:32:43;;;;;;;6.00;5.60;;;;;;;;;;4857554;29;20140;-78
2022/08/05 11:35:29;;;;;;;5.60;5.10;;;;;;;;;;4857709;29;20048;-80
2022/08/05 11:37:55;;;;;;;6.97;5.30;;;;;;;;;;4857789;29;20048;-80
2022/08/05 11:40:42;;;;;;;5.63;5.13;;;;;;;;;;4857739;29;20128;-79
2022/08/05 11:43:08;;;;;;;5.43;5.03;;;;;;;;;;4858204;29;20068;-79
2022/08/05 11:45:45;;;;;;;5.72;5.32;;;;;;;;;;4863927;29;20076;-78
2022/08/05 11:48:11;;;;;;;6.13;4.90;;;;;;;;;;4843296;29;20045;-78
2022/08/05 11:50:37;;;;;;;5.38;5.03;;;;;;;;;;4857844;29;20437;-79
2022/08/05 11:53:06;;;;;;;7.00;5.90;;;;;;;;;;4857479;29;20065;-79
2022/08/05 11:55:32;;;;;;;5.40;4.93;;;;;;;;;;4857490;29;20578;-80
2022/08/05 11:57:58;;;;;;;8.55;5.40;;;;;;;;;;4857458;29;20054;-79
2022/08/05 12:00:27;;;;;;;5.78;5.30;;;;;;;;;;4857210;29;20130;-78
2022/08/05 12:02:53;;;;;;;6.85;4.85;;;;;;;;;;4857387;29;20049;-79
2022/08/05 12:05:26;;;;;;;5.32;4.88;;;;;;;;;;4857326;29;20057;-79
2022/08/05 12:07:52;;;;;;;7.25;5.28;;;;;;;;;;4857343;29;20431;-79
2022/08/05 12:10:18;;;;;;;8.23;5.65;;;;;;;;;;4840801;29;20052;-80
2022/08/05 12:12:44;;;;;;;5.60;5.20;;;;;;;;;;4857113;29;20533;-77
2022/08/05 12:15:20;;;;;;;6.20;5.65;;;;;;;;;;4856201;29;20037;-80
2022/08/05 12:17:46;;;;;;;7.15;5.28;;;;;;;;;;4856223;29;20056;-78
2022/08/05 12:20:12;;;;;;;6.97;5.90;;;;;;;;;;4857330;29;20068;-80
2022/08/05 12:22:38;;;;;;;5.45;4.95;;;;;;;;;;4857141;29;20057;-79
2022/08/05 12:25:04;;;;;;;5.90;5.25;;;;;;;;;;4857401;29;20052;-79
2022/08/05 12:27:32;;;;;;;5.70;5.38;;;;;;;;;;4857068;29;20582;-79
2022/08/05 12:30:05;;;;;;;6.77;5.30;;;;;;;;;;4857585;29;20053;-78
2022/08/05 12:32:32;;;;;;;6.10;5.18;;;;;;;;;;4856701;29;20369;-79
2022/08/05 12:34:58;;;;;;;5.88;5.18;;;;;;;;;;4840700;29;20053;-79
2022/08/05 12:37:24;;;;;;;5.90;5.40;;;;;;;;;;4840554;29;20519;-78
2022/08/05 12:39:53;;;;;;;6.75;6.25;;;;;;;;;;4856197;29;20054;-80
2022/08/05 12:42:19;;;;;;;7.55;6.90;;;;;;;;;;4857071;29;20053;-80
2022/08/05 12:44:46;;;;;;;6.05;5.55;;;;;;;;;;4857375;29;20129;-79
2022/08/05 12:47:12;;;;;;;5.47;4.95;;;;;;;;;;4857106;29;20055;-81
2022/08/05 12:49:43;;;;;;;5.82;5.25;;;;;;;;;;4857390;29;20542;-80
2022/08/05 12:52:16;;;;;;;5.72;5.32;;;;;;;;;;4855868;29;20057;-80
2022/08/05 12:54:42;;;;;;;5.57;5.20;;;;;;;;;;4857057;29;20049;-80
2022/08/05 12:57:09;;;;;;;5.65;5.25;;;;;;;;;;4840399;29;20072;-79
2022/08/05 12:59:45;;;;;;;6.10;5.60;;;;;;;;;;4857032;29;20053;-79
2022/08/05 13:02:11;;;;;;;7.07;6.00;;;;;;;;;;4857190;29;20057;-79
2022/08/05 13:04:38;;;;;;;6.82;6.22;;;;;;;;;;4856671;29;20045;-79
2022/08/05 13:07:06;;;;;;;6.72;5.95;;;;;;;;;;4857039;29;20049;-79
2022/08/05 13:09:32;;;;;;;5.68;5.25;;;;;;;;;;4856778;29;20121;-78
2022/08/05 13:12:11;;;;;;;9.57;5.80;;;;;;;;;;4856753;29;20089;-78
2022/08/05 13:14:41;;;;;;;11.65;5.75;;;;;;;;;;4859701;29;20049;-80
2022/08/05 13:17:15;;;;;;;8.40;6.07;;;;;;;;;;4843862;29;20534;-79
2022/08/05 13:19:41;;;;;;;6.38;5.80;;;;;;;;;;4859306;29;20056;-79
2022/08/05 13:22:07;;;;;;;11.10;6.07;;;;;;;;;;4860172;29;20046;-79
2022/08/05 13:24:33;;;;;;;7.22;5.10;;;;;;;;;;4859988;29;20098;-79
2022/08/05 13:26:59;;;;;;;6.05;5.03;;;;;;;;;;4843619;29;20513;-79
2022/08/05 13:29:25;;;;;;;5.20;4.80;;;;;;;;;;4859945;29;20132;-80
2022/08/05 13:31:51;;;;;;;5.25;4.75;;;;;;;;;;4859959;29;20148;-79
2022/08/05 13:34:17;;;;;;;5.80;5.28;;;;;;;;;;4860289;29;20095;-82
2022/08/05 13:36:42;;;;;;;6.00;5.45;;;;;;;;;;4865381;29;20045;-80
2022/08/05 13:39:09;;;;;;;5.35;4.85;;;;;;;;;;4865117;29;20046;-80
2022/08/05 13:41:35;;;;;;;5.63;5.00;;;;;;;;;;4859617;29;20101;-78
2022/08/05 13:44:01;;;;;;;5.65;5.15;;;;;;;;;;4859979;29;20427;-79
2022/08/05 13:46:26;;;;;;;5.55;5.07;;;;;;;;;;4859658;29;20044;-79
2022/08/05 13:48:53;;;;;;;5.75;5.10;;;;;;;;;;4859425;29;20515;-78
2022/08/05 13:51:24;;;;;;;6.13;5.47;;;;;;;;;;4842948;29;20472;-79
2022/08/05 13:53:50;;;;;;;5.93;5.35;;;;;;;;;;4859803;29;20053;-80
2022/08/05 13:56:16;;;;;;;5.40;4.90;;;;;;;;;;4842860;29;20046;-78
2022/08/05 13:58:42;;;;;;;5.65;4.82;;;;;;;;;;4843258;29;20112;-79
2022/08/05 14:01:08;;;;;;;5.43;4.93;;;;;;;;;;4860160;29;20049;-82
2022/08/05 14:03:34;;;;;;;7.80;5.30;;;;;;;;;;4861321;29;20045;-80
2022/08/05 14:06:00;;;;;;;6.38;5.72;;;;;;;;;;4853889;29;20061;-80
2022/08/05 14:08:26;;;;;;;6.60;5.47;;;;;;;;;;4875697;29;20049;-78
2022/08/05 14:10:52;;;;;;;4.70;4.30;;;;;;;;;;4871540;29;20053;-79
2022/08/05 14:13:18;;;;;;;5.75;4.88;;;;;;;;;;4859714;29;20061;-81
2022/08/05 14:15:44;;;;;;;5.20;4.70;;;;;;;;;;4843138;29;20041;-81
2022/08/05 14:18:11;;;;;;;4.80;4.32;;;;;;;;;;4859327;29;20124;-78
2022/08/05 14:20:36;;;;;;;7.65;5.10;;;;;;;;;;4859183;29;20648;-80
2022/08/05 14:23:02;;;;;;;5.32;4.90;;;;;;;;;;4859065;29;20053;-79
2022/08/05 14:25:28;;;;;;;7.25;5.22;;;;;;;;;;4858873;29;20117;-81
2022/08/05 14:27:54;;;;;;;6.50;5.40;;;;;;;;;;4842207;29;20041;-80
2022/08/05 14:30:20;;;;;;;6.65;5.00;;;;;;;;;;4859106;29;20199;-79
2022/08/05 14:32:47;;;;;;;5.68;4.60;;;;;;;;;;4858795;29;20144;-80
2022/08/05 14:35:13;;;;;;;5.13;4.70;;;;;;;;;;4842570;29;20052;-80
2022/08/05 14:37:39;;;;;;;7.18;4.75;;;;;;;;;;4858588;29;20041;-81
2022/08/05 14:40:05;;;;;;;5.53;5.00;;;;;;;;;;4842170;29;20057;-80
2022/08/05 14:42:31;;;;;;;11.13;5.03;;;;;;;;;;4858737;29;20449;-79
2022/08/05 14:44:57;;;;;;;4.90;4.50;;;;;;;;;;4858606;29;20057;-79
2022/08/05 14:47:23;;;;;;;6.95;5.10;;;;;;;;;;4841670;29;20407;-80
2022/08/05 14:49:49;;;;;;;5.50;5.00;;;;;;;;;;4841880;29;20049;-79
2022/08/05 14:52:15;;;;;;;5.07;4.65;;;;;;;;;;4858541;29;20057;-80
2022/08/05 14:54:42;;;;;;;11.10;4.82;;;;;;;;;;4858566;29;20057;-80
2022/08/05 14:57:08;;;;;;;5.45;5.00;;;;;;;;;;4858318;29;20063;-79
2022/08/05 14:59:33;;;;;;;5.10;4.70;;;;;;;;;;4858241;29;20033;-80
2022/08/05 15:02:00;;;;;;;5.10;4.80;;;;;;;;;;4842077;29;20149;-80
2022/08/05 15:04:26;;;;;;;6.72;4.85;;;;;;;;;;4841785;29;20041;-78
2022/08/05 15:06:51;;;;;;;5.55;5.15;;;;;;;;;;4858022;29;20049;-79
2022/08/05 15:09:18;;;;;;;5.47;5.07;;;;;;;;;;4858596;29;20041;-79
2022/08/05 15:11:44;;;;;;;5.60;5.10;;;;;;;;;;4857974;29;20065;-77